Time;durP1;ratioP1;P1;durP2;ratioP2;P2;SDS_P1;SDS_P2;PMS_P1;PMS_P2;Temp;Humidity;BMP_temperature;BMP_pressure;BME280_temperature;BME280_humidity;BME280_pressure;Samples;Min_cycle;Max_cycle;Signal;HPM_P1;HPM_P2
2022/10/04 00:01:59;;;;;;;18.53;3.70;;;;;;;18.90;nan;101789.13;6198169;23;20486;-89
2022/10/04 00:04:41;;;;;;;10.87;3.47;;;;;;;18.91;nan;101788.06;6222714;23;21047;-88
2022/10/04 00:07:11;;;;;;;12.67;3.60;;;;;;;18.96;nan;101786.34;6223278;23;20407;-88
2022/10/04 00:09:57;;;;;;;13.20;3.23;;;;;;;18.98;nan;101789.72;6222868;23;20489;-88
2022/10/04 00:12:26;;;;;;;11.80;3.60;;;;;;;18.99;nan;101785.03;6199581;23;20402;-88
2022/10/04 00:15:00;;;;;;;13.17;3.90;;;;;;;18.93;nan;101781.22;6197880;23;20406;-88
2022/10/04 00:17:31;;;;;;;14.50;4.20;;;;;;;18.87;nan;101781.28;6198159;23;20412;-88
2022/10/04 00:20:03;;;;;;;10.53;3.80;;;;;;;18.84;nan;101774.28;6223250;23;20413;-88
2022/10/04 00:22:31;;;;;;;13.63;3.53;;;;;;;18.82;nan;101775.56;6247696;23;20414;-89
2022/10/04 00:25:12;;;;;;;7.73;3.37;;;;;;;18.85;nan;101775.13;6173809;23;20410;-88
2022/10/04 00:28:17;;;;;;;10.03;2.90;;;;;;;18.86;nan;101772.09;6222925;23;20394;-89
2022/10/04 00:31:14;;;;;;;15.90;3.77;;;;;;;18.85;nan;101762.13;6201976;23;20536;-89
2022/10/04 00:33:44;;;;;;;6.57;2.77;;;;;;;18.86;nan;101763.81;6222540;23;20536;-88
2022/10/04 00:36:24;;;;;;;7.13;2.50;;;;;;;18.85;nan;101761.28;6173294;23;20403;-88
2022/10/04 00:39:03;;;;;;;18.23;3.10;;;;;;;18.82;nan;101753.41;6249110;23;20448;-87
2022/10/04 00:41:46;;;;;;;12.17;2.47;;;;;;;18.81;nan;101751.72;6222390;23;20478;-89
2022/10/04 00:44:32;;;;;;;8.10;2.43;;;;;;;18.76;nan;101741.31;6222627;23;20409;-90
2022/10/04 00:47:04;;;;;;;10.40;2.30;;;;;;;18.72;nan;101742.81;6249559;23;20564;-89
2022/10/04 00:49:38;;;;;;;8.27;2.40;;;;;;;18.71;nan;101751.34;6198395;23;20407;-87
2022/10/04 00:52:12;;;;;;;6.53;1.80;;;;;;;18.60;nan;101742.69;6247236;23;20402;-89
2022/10/04 00:54:44;;;;;;;14.87;2.40;;;;;;;18.65;nan;101752.25;6172454;23;21028;-89
2022/10/04 00:57:16;;;;;;;11.90;2.20;;;;;;;18.59;nan;101746.53;6168002;23;20411;-89
2022/10/04 01:00:11;;;;;;;6.47;2.40;;;;;;;18.63;nan;101742.25;6168231;23;20525;-89
2022/10/04 01:02:44;;;;;;;6.83;2.47;;;;;;;18.65;nan;101752.25;6215345;23;20403;-89
2022/10/04 01:05:44;;;;;;;11.07;2.47;;;;;;;18.59;nan;101738.22;6190489;23;20482;-88
2022/10/04 01:08:17;;;;;;;18.23;2.80;;;;;;;18.58;nan;101746.72;6170299;23;20454;-89
2022/10/04 01:11:08;;;;;;;15.50;3.00;;;;;;;18.53;nan;101744.59;6167043;23;20704;-88
2022/10/04 01:13:43;;;;;;;6.23;2.40;;;;;;;18.51;nan;101738.44;6166874;23;20427;-88
2022/10/04 01:16:21;;;;;;;11.80;2.37;;;;;;;18.45;nan;101738.50;6191120;23;20482;-88
2022/10/04 01:18:50;;;;;;;13.10;2.93;;;;;;;18.41;nan;101738.09;6142266;23;20783;-89
2022/10/04 01:21:18;;;;;;;16.47;2.40;;;;;;;18.42;nan;101734.25;6190652;23;20404;-89
2022/10/04 01:23:49;;;;;;;10.13;3.50;;;;;;;18.40;nan;101735.53;6190555;23;20837;-89
2022/10/04 01:26:31;;;;;;;19.93;3.13;;;;;;;18.36;nan;101735.13;6100592;23;20410;-88
2022/10/04 01:29:01;;;;;;;13.90;2.87;;;;;;;18.31;nan;101737.69;6100784;23;20545;-88
2022/10/04 01:31:31;;;;;;;8.67;2.33;;;;;;;18.25;nan;101738.59;6100478;23;20797;-88
2022/10/04 01:34:00;;;;;;;8.93;2.40;;;;;;;18.24;nan;101742.44;6077750;23;20403;-88
2022/10/04 01:36:28;;;;;;;9.50;2.87;;;;;;;18.19;nan;101733.94;6077774;23;20901;-89
2022/10/04 01:38:56;;;;;;;8.20;2.73;;;;;;;18.16;nan;101735.22;6100671;23;20525;-89
2022/10/04 01:41:29;;;;;;;5.80;1.97;;;;;;;18.12;nan;101724.81;6124787;23;20399;-86
2022/10/04 01:43:59;;;;;;;6.07;1.83;;;;;;;18.12;nan;101724.81;6148107;23;20786;-89
2022/10/04 01:46:32;;;;;;;9.70;2.67;;;;;;;18.11;nan;101731.41;6142269;23;20841;-88
2022/10/04 01:49:03;;;;;;;14.07;2.53;;;;;;;18.10;nan;101724.16;6190638;23;20400;-88
2022/10/04 01:51:38;;;;;;;16.90;1.77;;;;;;;18.13;nan;101723.72;6191045;23;20412;-88
2022/10/04 01:54:13;;;;;;;7.43;1.93;;;;;;;18.13;nan;101723.72;6182704;23;20435;-88
2022/10/04 01:56:47;;;;;;;9.80;3.33;;;;;;;18.13;nan;101727.34;6221535;23;20410;-88
2022/10/04 01:59:22;;;;;;;10.27;2.77;;;;;;;18.10;nan;101729.69;6220173;23;20514;-88
2022/10/04 02:01:59;;;;;;;10.30;2.40;;;;;;;18.08;nan;101726.34;6196962;23;20414;-88
2022/10/04 02:04:28;;;;;;;12.50;2.43;;;;;;;18.00;nan;101718.25;6220252;23;20730;-88
2022/10/04 02:06:58;;;;;;;9.53;2.30;;;;;;;17.97;nan;101715.94;6171229;23;20402;-88
2022/10/04 02:09:29;;;;;;;21.93;3.03;;;;;;;17.96;nan;101717.84;6170974;23;20410;-87
2022/10/04 02:11:58;;;;;;;12.73;2.50;;;;;;;17.87;nan;101708.97;6195633;23;20972;-87
2022/10/04 02:14:32;;;;;;;8.00;2.63;;;;;;;17.89;nan;101712.38;6171833;23;20406;-86
2022/10/04 02:17:00;;;;;;;9.43;2.13;;;;;;;17.85;nan;101713.84;6195247;23;20406;-86
2022/10/04 02:19:35;;;;;;;15.27;3.00;;;;;;;17.81;nan;101700.69;6171228;23;20504;-86
2022/10/04 02:22:03;;;;;;;8.73;2.63;;;;;;;17.71;nan;101703.88;6195484;23;20560;-87
2022/10/04 02:24:32;;;;;;;9.17;2.17;;;;;;;17.70;nan;101712.44;6195818;23;20485;-86
2022/10/04 02:27:00;;;;;;;17.87;2.43;;;;;;;17.65;nan;101710.31;6171013;23;20790;-87
2022/10/04 02:29:28;;;;;;;36.77;3.50;;;;;;;17.64;nan;101708.59;6195231;23;20481;-86
2022/10/04 02:34:45;;;;;;;38.40;3.87;;;;;;;17.66;nan;101695.41;6246365;23;20490;-87
2022/10/04 02:37:13;;;;;;;45.47;4.90;;;;;;;17.66;nan;101692.66;6216508;23;20992;-88
2022/10/04 02:39:55;;;;;;;44.73;5.13;;;;;;;17.65;nan;101687.34;6168685;23;21024;-87
2022/10/04 02:43:00;;;;;;;49.80;5.17;;;;;;;17.59;nan;101680.72;6173031;23;20489;-86
2022/10/04 02:45:46;;;;;;;33.63;3.77;;;;;;;17.61;nan;101681.34;6053476;23;20410;-87
2022/10/04 02:48:21;;;;;;;24.43;3.37;;;;;;;17.58;nan;101687.31;6071641;23;20422;-86
2022/10/04 02:50:50;;;;;;;31.17;3.03;;;;;;;17.57;nan;101680.09;6094077;23;20838;-87
2022/10/04 02:53:53;;;;;;;13.80;3.13;;;;;;;17.53;nan;101681.56;6047549;23;20501;-87
2022/10/04 02:56:24;;;;;;;28.50;3.40;;;;;;;17.46;nan;101661.41;6094009;23;20524;-87
2022/10/04 02:58:52;;;;;;;14.43;2.63;;;;;;;17.42;nan;101652.69;6042310;23;20534;-87
2022/10/04 03:01:25;;;;;;;19.77;3.37;;;;;;;17.44;nan;101660.78;6036302;23;20411;-87
2022/10/04 03:03:55;;;;;;;26.70;2.93;;;;;;;17.45;nan;101655.03;6047067;23;20542;-87
2022/10/04 03:06:23;;;;;;;25.90;3.10;;;;;;;17.44;nan;101652.50;6042215;23;20498;-86
2022/10/04 03:09:22;;;;;;;32.57;3.70;;;;;;;17.43;nan;101651.63;6065339;23;20470;-86
2022/10/04 03:11:55;;;;;;;22.43;3.70;;;;;;;17.41;nan;101655.69;6093293;23;20474;-86
2022/10/04 03:14:24;;;;;;;26.27;3.70;;;;;;;17.41;nan;101650.16;6018857;23;20800;-87
2022/10/04 03:16:53;;;;;;;37.27;4.67;;;;;;;17.37;nan;101651.66;6037659;23;20479;-87
2022/10/04 03:19:23;;;;;;;9.83;2.40;;;;;;;17.34;nan;101657.59;6008083;23;20763;-87
2022/10/04 03:21:52;;;;;;;10.10;2.30;;;;;;;17.23;nan;101639.78;6147172;23;20411;-87
2022/10/04 03:24:48;;;;;;;19.60;2.97;;;;;;;17.26;nan;101642.97;6170456;23;20486;-87
2022/10/04 03:27:21;;;;;;;22.07;3.10;;;;;;;17.17;nan;101635.09;6219605;23;20481;-87
2022/10/04 03:29:50;;;;;;;20.50;2.93;;;;;;;17.26;nan;101645.72;6194345;23;20490;-87
2022/10/04 03:32:23;;;;;;;18.63;2.83;;;;;;;17.22;nan;101641.69;6220196;23;20498;-86
2022/10/04 03:34:59;;;;;;;16.10;3.30;;;;;;;17.21;nan;101659.34;6244801;23;20485;-86
2022/10/04 03:37:29;;;;;;;13.83;2.80;;;;;;;17.17;nan;101651.69;6170538;23;20413;-87
2022/10/04 03:39:58;;;;;;;11.30;2.10;;;;;;;17.13;nan;101650.41;6218828;23;20739;-88
2022/10/04 03:42:28;;;;;;;10.30;2.23;;;;;;;17.08;nan;101653.84;6194613;23;20552;-87
2022/10/04 03:45:17;;;;;;;22.90;2.40;;;;;;;17.09;nan;101658.31;6193537;23;20920;-87
2022/10/04 03:47:47;;;;;;;14.03;2.20;;;;;;;17.09;nan;101650.03;6128114;23;20986;-86
2022/10/04 03:50:46;;;;;;;10.90;2.70;;;;;;;17.06;nan;101652.34;6128892;23;20492;-87
2022/10/04 03:53:26;;;;;;;16.00;3.37;;;;;;;17.03;nan;101659.16;6101693;23;20525;-87
2022/10/04 03:55:54;;;;;;;21.53;3.27;;;;;;;16.96;nan;101644.50;6077683;23;20530;-87
2022/10/04 03:58:22;;;;;;;13.87;2.37;;;;;;;17.01;nan;101658.50;6052073;23;20856;-88
2022/10/04 04:00:59;;;;;;;16.07;2.47;;;;;;;17.01;nan;101653.00;6051840;23;20523;-87
2022/10/04 04:03:29;;;;;;;14.00;2.70;;;;;;;17.02;nan;101654.69;6099859;23;20414;-88
2022/10/04 04:05:58;;;;;;;7.27;2.00;;;;;;;17.00;nan;101656.81;6099283;23;20461;-87
2022/10/04 04:08:29;;;;;;;10.07;2.50;;;;;;;16.98;nan;101658.94;6052796;23;20744;-87
2022/10/04 04:10:59;;;;;;;13.20;2.40;;;;;;;16.95;nan;101648.31;6075716;23;20485;-87
2022/10/04 04:13:33;;;;;;;10.87;1.73;;;;;;;16.92;nan;101648.75;6183669;23;20537;-87
2022/10/04 04:16:02;;;;;;;7.60;2.43;;;;;;;16.92;nan;101657.06;6189495;23;20422;-87
2022/10/04 04:18:32;;;;;;;16.13;3.13;;;;;;;16.90;nan;101653.66;6164150;23;20408;-88
2022/10/04 04:21:02;;;;;;;11.80;2.63;;;;;;;16.88;nan;101658.53;6164810;23;20950;-87
2022/10/04 04:23:32;;;;;;;18.77;2.97;;;;;;;16.89;nan;101655.56;6164650;23;20466;-87
2022/10/04 04:26:16;;;;;;;19.13;2.37;;;;;;;16.87;nan;101663.22;6164828;23;20534;-86
2022/10/04 04:28:48;;;;;;;8.77;1.90;;;;;;;16.79;nan;101652.34;6207264;23;20479;-87
2022/10/04 04:31:28;;;;;;;13.53;2.57;;;;;;;16.78;nan;101658.94;6189649;23;20408;-87
2022/10/04 04:33:58;;;;;;;9.57;1.93;;;;;;;16.80;nan;101667.00;6188671;23;20403;-87
2022/10/04 04:36:46;;;;;;;14.33;2.80;;;;;;;16.81;nan;101663.19;6188235;23;20986;-87
2022/10/04 04:39:33;;;;;;;11.40;2.27;;;;;;;16.81;nan;101675.09;6164403;23;21120;-88
2022/10/04 04:42:22;;;;;;;9.73;1.90;;;;;;;16.77;nan;101650.88;6169622;23;20418;-87
2022/10/04 04:44:53;;;;;;;12.33;2.20;;;;;;;16.78;nan;101671.91;6171998;23;20474;-87
2022/10/04 04:47:43;;;;;;;9.60;2.27;;;;;;;16.82;nan;101676.78;6166433;23;20495;-87
2022/10/04 04:50:19;;;;;;;13.13;2.10;;;;;;;16.81;nan;101674.25;6215330;23;20486;-87
2022/10/04 04:53:18;;;;;;;12.63;2.50;;;;;;;16.79;nan;101676.34;6192774;23;20482;-87
2022/10/04 04:56:02;;;;;;;5.80;1.90;;;;;;;16.78;nan;101677.41;6197418;23;20444;-87
2022/10/04 04:58:35;;;;;;;8.90;2.30;;;;;;;16.73;nan;101668.94;6197633;23;20763;-87
2022/10/04 05:01:22;;;;;;;19.77;2.23;;;;;;;16.79;nan;101681.88;6172249;23;20576;-86
2022/10/04 05:04:03;;;;;;;6.97;2.40;;;;;;;16.78;nan;101681.03;6247249;23;20494;-86
2022/10/04 05:06:32;;;;;;;13.80;2.30;;;;;;;16.71;nan;101673.81;6220653;23;20486;-86
2022/10/04 05:09:02;;;;;;;5.77;1.60;;;;;;;16.77;nan;101689.53;6171555;23;20414;-87
2022/10/04 05:11:37;;;;;;;19.33;2.60;;;;;;;16.74;nan;101684.44;6196610;23;20541;-87
2022/10/04 05:14:08;;;;;;;17.10;2.77;;;;;;;16.76;nan;101687.81;6220864;23;20473;-87
2022/10/04 05:16:41;;;;;;;12.73;2.40;;;;;;;16.85;nan;101687.41;6195952;23;20917;-86
2022/10/04 05:19:26;;;;;;;12.50;2.50;;;;;;;17.00;nan;101687.19;6220792;23;20486;-86
2022/10/04 05:21:55;;;;;;;11.87;2.70;;;;;;;17.12;nan;101691.03;6220037;23;20959;-87
2022/10/04 05:24:27;;;;;;;18.60;2.00;;;;;;;17.25;nan;101682.72;6221044;23;20555;-87
2022/10/04 05:27:25;;;;;;;11.83;3.07;;;;;;;17.39;nan;101678.00;6196840;23;20411;-87
2022/10/04 05:29:59;;;;;;;20.37;2.60;;;;;;;17.53;nan;101673.28;6220225;23;20541;-87
2022/10/04 05:33:05;;;;;;;28.00;3.80;;;;;;;17.65;nan;101676.28;6245575;23;20544;-86
2022/10/04 05:36:05;;;;;;;14.23;2.53;;;;;;;17.71;nan;101679.00;6220527;23;20545;-87
2022/10/04 05:38:43;;;;;;;8.43;2.30;;;;;;;17.78;nan;101679.84;6224662;23;20410;-87
2022/10/04 05:41:47;;;;;;;6.10;2.00;;;;;;;17.81;nan;101676.63;6245697;23;20446;-86
2022/10/04 05:44:25;;;;;;;14.90;2.80;;;;;;;17.84;nan;101686.41;6220198;23;20537;-86
2022/10/04 05:46:57;;;;;;;12.47;2.40;;;;;;;17.78;nan;101677.06;6220037;23;20717;-86
2022/10/04 05:49:25;;;;;;;21.40;2.40;;;;;;;17.78;nan;101682.59;6218668;23;20477;-86
2022/10/04 05:52:00;;;;;;;8.30;2.50;;;;;;;17.78;nan;101677.06;6195608;23;20418;-87
2022/10/04 05:54:31;;;;;;;17.17;2.77;;;;;;;17.78;nan;101684.50;6172903;23;20780;-88
2022/10/04 05:57:29;;;;;;;11.43;2.70;;;;;;;17.74;nan;101686.88;6214789;23;20411;-86
2022/10/04 06:00:08;;;;;;;12.53;2.50;;;;;;;17.69;nan;101685.84;6189984;23;20439;-86
2022/10/04 06:02:51;;;;;;;17.43;3.03;;;;;;;17.68;nan;101687.75;6216060;23;20408;-86
2022/10/04 06:05:49;;;;;;;7.50;2.20;;;;;;;17.71;nan;101681.75;6192356;23;20430;-86
2022/10/04 06:08:36;;;;;;;20.40;3.70;;;;;;;17.72;nan;101686.22;6214477;23;20400;-87
2022/10/04 06:11:23;;;;;;;14.10;2.47;;;;;;;17.78;nan;101688.13;6165044;23;20788;-87
2022/10/04 06:14:31;;;;;;;12.00;2.40;;;;;;;17.79;nan;101692.59;6190333;23;20437;-87
2022/10/04 06:17:09;;;;;;;16.93;3.33;;;;;;;17.74;nan;101694.31;6189776;23;20404;-88
2022/10/04 06:19:59;;;;;;;14.83;3.10;;;;;;;17.67;nan;101690.75;6214604;23;20517;-87
2022/10/04 06:22:27;;;;;;;9.70;2.60;;;;;;;17.54;nan;101689.66;6216116;23;20404;-88
2022/10/04 06:25:46;;;;;;;12.73;3.20;;;;;;;17.52;nan;101693.69;6165789;23;20403;-87
2022/10/04 06:28:21;;;;;;;8.97;2.27;;;;;;;17.43;nan;101701.38;6171859;23;20435;-87
2022/10/04 06:31:04;;;;;;;7.97;2.23;;;;;;;17.41;nan;101705.44;6190298;23;20490;-87
2022/10/04 06:33:47;;;;;;;13.20;2.33;;;;;;;17.31;nan;101693.97;6216115;23;20541;-87
2022/10/04 06:36:18;;;;;;;13.67;2.53;;;;;;;17.31;nan;101708.66;6167882;23;20487;-88
2022/10/04 06:39:07;;;;;;;23.80;2.63;;;;;;;17.25;nan;101704.81;6190267;23;20530;-89
2022/10/04 07:51:04;;;;;;;40.57;5.60;;;;;;;18.19;nan;101756.91;6240698;23;20488;-91
2022/10/04 08:01:39;;;;;;;11.73;3.00;;;;;;;18.56;nan;101757.16;6246462;23;20445;-86
2022/10/04 08:04:29;;;;;;;16.43;3.23;;;;;;;18.66;nan;101765.88;6244763;23;20406;-86
2022/10/04 08:06:58;;;;;;;25.37;3.90;;;;;;;18.74;nan;101759.22;6219305;23;20485;-84
2022/10/04 08:09:35;;;;;;;18.13;2.93;;;;;;;18.87;nan;101770.19;6218581;23;20411;-83
2022/10/04 08:12:15;;;;;;;14.70;3.07;;;;;;;18.91;nan;101754.81;6220390;23;20417;-82
2022/10/04 08:15:09;;;;;;;22.30;3.70;;;;;;;19.09;nan;101765.97;6223410;23;20893;-86
2022/10/04 08:18:09;;;;;;;20.37;3.00;;;;;;;19.22;nan;101774.22;6221821;23;20403;-90
2022/10/04 08:21:04;;;;;;;24.87;3.53;;;;;;;19.36;nan;101769.38;6131636;23;20428;-91
2022/10/04 08:23:39;;;;;;;22.07;2.70;;;;;;;19.48;nan;101767.56;6086305;23;20785;-89
2022/10/04 08:26:21;;;;;;;18.40;3.30;;;;;;;19.62;nan;101768.34;6130873;23;20468;-90
2022/10/04 08:32:55;;;;;;;25.33;3.60;;;;;;;19.94;nan;101763.50;6155395;23;20465;-87
2022/10/04 08:35:28;;;;;;;22.10;3.20;;;;;;;20.08;nan;101766.97;6130527;23;20488;-88
2022/10/04 08:38:20;;;;;;;21.83;3.30;;;;;;;20.22;nan;101769.34;6130606;23;20484;-88
2022/10/04 08:41:15;;;;;;;11.50;2.40;;;;;;;20.38;nan;101767.91;6130496;23;20441;-88
2022/10/04 08:44:22;;;;;;;27.83;3.47;;;;;;;20.57;nan;101777.06;6130724;23;20457;-89
2022/10/04 08:46:58;;;;;;;34.33;3.90;;;;;;;20.73;nan;101772.75;6220927;23;20742;-89
2022/10/04 08:50:08;;;;;;;26.50;3.03;;;;;;;20.84;nan;101760.81;6247996;23;20413;-89
2022/10/04 08:53:07;;;;;;;16.70;3.13;;;;;;;21.03;nan;101765.22;6160704;23;20566;-89
2022/10/04 08:55:54;;;;;;;40.47;3.00;;;;;;;21.20;nan;101777.38;6239675;23;20912;-88
2022/10/04 15:22:52;;;;;;;4.33;1.50;;;;;;;29.39;nan;101647.34;6216291;23;20425;-88
2022/10/04 15:25:40;;;;;;;10.13;1.87;;;;;;;29.33;nan;101651.31;6165666;23;20403;-90
2022/10/04 15:28:24;;;;;;;4.40;1.57;;;;;;;29.38;nan;101653.25;6165646;23;20411;-90
2022/10/04 15:31:00;;;;;;;12.13;2.00;;;;;;;29.20;nan;101646.38;6190253;23;20495;-90
2022/10/04 15:33:39;;;;;;;23.13;1.80;;;;;;;29.06;nan;101634.97;6142249;23;20403;-90
2022/10/04 15:36:28;;;;;;;8.23;2.03;;;;;;;29.15;nan;101657.69;6141932;23;20399;-90
2022/10/04 15:39:25;;;;;;;6.43;1.10;;;;;;;29.07;nan;101653.53;6190374;23;20898;-90
2022/10/04 15:42:10;;;;;;;5.00;1.50;;;;;;;29.07;nan;101638.63;6176419;23;20527;-90
2022/10/04 15:45:09;;;;;;;9.20;1.43;;;;;;;29.14;nan;101639.13;6191972;23;20482;-91
2022/10/04 15:47:50;;;;;;;3.20;1.00;;;;;;;29.03;nan;101643.19;6094806;23;20527;-90
2022/10/04 15:50:42;;;;;;;7.60;1.63;;;;;;;28.88;nan;101639.34;6071351;23;20494;-91
2022/10/04 16:44:06;;;;;;;3.63;1.10;;;;;;;27.61;nan;101624.34;6245859;23;20474;-89
2022/10/04 17:21:25;;;;;;;4.43;1.33;;;;;;;25.65;nan;101624.69;6247583;23;20417;-91
2022/10/04 17:36:19;;;;;;;12.73;1.37;;;;;;;24.87;nan;101623.59;6247397;23;20382;-89
2022/10/04 18:03:00;;;;;;;;;;;;;;;;;;;;;
2022/10/04 18:06:25;;;;;;;;;;;;;;;;;;;;;
2022/10/04 18:17:05;;;;;;;7.23;1.70;;;;;;;23.32;nan;101634.34;6154971;23;20365;-91
2022/10/04 18:19:57;;;;;;;5.13;1.50;;;;;;;23.23;nan;101641.50;6221757;23;20419;-90
2022/10/04 18:22:25;;;;;;;4.40;1.53;;;;;;;23.19;nan;101616.03;6219993;23;20446;-89
2022/10/04 18:25:15;;;;;;;3.30;1.47;;;;;;;23.05;nan;101623.09;6195685;23;20406;-88
2022/10/04 18:27:48;;;;;;;6.00;1.43;;;;;;;23.01;nan;101624.69;6173472;23;20481;-89
2022/10/04 18:30:21;;;;;;;5.60;1.53;;;;;;;22.97;nan;101620.72;6195796;23;20505;-90
2022/10/04 18:32:59;;;;;;;2.30;0.90;;;;;;;22.93;nan;101627.91;6171005;23;20731;-89
2022/10/04 18:36:15;;;;;;;6.27;1.60;;;;;;;22.81;nan;101616.84;6170947;23;20414;-90
2022/10/04 18:47:19;;;;;;;2.47;1.20;;;;;;;22.73;nan;101645.09;6246881;23;20354;-90
2022/10/04 18:49:52;;;;;;;4.70;1.00;;;;;;;22.62;nan;101641.31;6220796;23;20921;-91
2022/10/04 19:23:02;;;;;;;2.93;1.20;;;;;;;22.05;nan;101651.66;6124545;23;20526;-91
2022/10/04 19:37:21;;;;;;;3.90;1.70;;;;;;;21.90;nan;101649.38;5981655;24;20475;-90
2022/10/04 19:40:10;;;;;;;4.43;1.70;;;;;;;21.88;nan;101645.13;6043118;23;20491;-90
2022/10/04 19:50:31;;;;;;;7.10;2.00;;;;;;;21.80;nan;101676.97;6151113;23;20418;-90
2022/10/04 19:53:16;;;;;;;3.63;1.43;;;;;;;21.71;nan;101672.91;6219073;23;20525;-89
2022/10/04 19:55:54;;;;;;;9.93;2.30;;;;;;;21.72;nan;101674.59;6173678;23;20407;-90
2022/10/04 19:58:45;;;;;;;4.83;1.77;;;;;;;21.68;nan;101685.38;6183637;23;20394;-89
2022/10/04 20:01:15;;;;;;;2.83;1.97;;;;;;;21.65;nan;101671.09;6195447;23;20529;-90
2022/10/04 20:56:57;;;;;;;3.80;1.40;;;;;;;21.31;nan;101712.59;6241454;22;20418;-87
2022/10/04 20:59:33;;;;;;;4.60;1.67;;;;;;;21.31;nan;101707.03;6199925;23;20501;-87
2022/10/04 21:02:10;;;;;;;2.60;1.27;;;;;;;21.41;nan;101716.69;6171616;23;21011;-87
2022/10/04 21:04:50;;;;;;;5.90;1.00;;;;;;;21.42;nan;101707.28;6198790;23;20402;-87
2022/10/04 21:07:23;;;;;;;3.50;1.27;;;;;;;21.44;nan;101719.00;6222613;23;20483;-87
2022/10/04 21:09:55;;;;;;;7.37;1.33;;;;;;;21.50;nan;101729.16;6197241;23;20726;-87
2022/10/04 21:12:36;;;;;;;3.50;1.47;;;;;;;21.51;nan;101722.53;6220535;23;20434;-87
2022/10/04 21:15:17;;;;;;;5.63;1.20;;;;;;;21.53;nan;101731.47;6100928;23;20411;-87
2022/10/04 21:18:06;;;;;;;5.03;1.60;;;;;;;21.55;nan;101712.59;6100169;23;20406;-87
2022/10/04 21:20:54;;;;;;;13.87;1.60;;;;;;;21.52;nan;101725.06;6052860;23;20415;-88
2022/10/04 21:23:33;;;;;;;12.13;2.50;;;;;;;21.47;nan;101726.88;6102062;23;21112;-88
2022/10/04 21:26:22;;;;;;;3.17;1.50;;;;;;;21.40;nan;101720.56;6102209;23;20718;-88
2022/10/04 21:29:02;;;;;;;5.70;1.90;;;;;;;21.34;nan;101723.25;6081259;23;20418;-89
2022/10/04 21:31:32;;;;;;;8.23;1.73;;;;;;;21.34;nan;101728.81;6100929;23;20513;-88
2022/10/04 21:34:01;;;;;;;2.43;1.43;;;;;;;21.22;nan;101705.69;6100832;23;20411;-88
2022/10/04 21:36:31;;;;;;;6.77;1.70;;;;;;;21.30;nan;101721.19;6054540;23;20410;-86
2022/10/04 21:38:59;;;;;;;2.20;1.67;;;;;;;21.19;nan;101714.47;6149561;23;20545;-87
2022/10/04 21:41:29;;;;;;;4.60;1.47;;;;;;;21.22;nan;101719.59;6171210;23;20442;-87
2022/10/04 21:48:33;;;;;;;3.87;1.33;;;;;;;21.13;nan;101726.59;6246872;23;20361;-88
2022/10/04 21:51:02;;;;;;;6.53;1.80;;;;;;;21.10;nan;101727.06;6220280;23;20481;-88
2022/10/04 21:53:30;;;;;;;3.73;1.37;;;;;;;21.07;nan;101721.97;6220379;23;20928;-87
2022/10/04 21:55:58;;;;;;;3.77;1.70;;;;;;;21.04;nan;101714.09;6219705;23;20909;-87
2022/10/04 21:58:26;;;;;;;4.70;1.73;;;;;;;21.03;nan;101720.75;6170946;23;20427;-88
2022/10/04 22:00:55;;;;;;;2.63;1.57;;;;;;;20.96;nan;101706.97;6166221;23;20403;-88
2022/10/04 22:03:24;;;;;;;3.30;1.50;;;;;;;20.98;nan;101715.91;6100224;23;20490;-88
2022/10/04 22:05:53;;;;;;;3.67;1.77;;;;;;;20.94;nan;101711.09;6124653;23;20407;-88
2022/10/04 22:08:22;;;;;;;4.40;1.63;;;;;;;20.97;nan;101718.94;6088656;23;20429;-88
2022/10/04 22:10:50;;;;;;;5.07;2.23;;;;;;;20.85;nan;101707.78;6100374;23;20814;-88
2022/10/04 22:13:23;;;;;;;5.53;2.50;;;;;;;20.89;nan;101724.84;6077839;23;20485;-88
2022/10/04 22:15:56;;;;;;;2.87;1.70;;;;;;;20.82;nan;101718.53;6075677;23;20858;-88
2022/10/04 22:18:25;;;;;;;7.90;1.70;;;;;;;20.74;nan;101714.19;6124348;23;20409;-87
2022/10/04 22:20:56;;;;;;;4.80;1.67;;;;;;;20.70;nan;101715.72;6121140;23;20404;-88
2022/10/04 22:23:27;;;;;;;3.17;1.50;;;;;;;20.64;nan;101714.75;6189762;23;20482;-88
2022/10/04 22:25:58;;;;;;;5.00;1.47;;;;;;;20.65;nan;101719.22;6190219;23;20576;-88
2022/10/04 22:28:30;;;;;;;4.87;1.70;;;;;;;20.64;nan;101728.63;6190122;23;20399;-86
2022/10/04 22:30:57;;;;;;;3.27;2.10;;;;;;;20.63;nan;101720.53;6164772;23;20411;-87
2022/10/04 22:33:25;;;;;;;5.97;1.60;;;;;;;20.67;nan;101722.59;6141127;23;20408;-88
2022/10/04 22:36:22;;;;;;;6.00;2.07;;;;;;;20.74;nan;101724.44;6215741;23;20405;-87
2022/10/04 22:38:59;;;;;;;8.17;2.10;;;;;;;20.83;nan;101725.78;6165176;23;20408;-88
2022/10/04 22:41:29;;;;;;;7.20;1.50;;;;;;;20.82;nan;101702.69;6166820;23;20514;-87
2022/10/04 22:44:00;;;;;;;5.63;1.30;;;;;;;20.99;nan;101708.41;6165314;23;20408;-88
2022/10/04 22:46:33;;;;;;;10.33;1.50;;;;;;;21.07;nan;101710.84;6165695;23;20400;-87
2022/10/04 22:49:05;;;;;;;5.27;1.83;;;;;;;21.13;nan;101709.06;6189937;23;20898;-87
2022/10/04 22:51:39;;;;;;;3.07;1.60;;;;;;;21.16;nan;101703.88;6165350;23;20503;-88
2022/10/04 22:54:34;;;;;;;10.00;1.40;;;;;;;21.24;nan;101703.53;6190231;23;20534;-88
2022/10/04 22:57:03;;;;;;;5.93;1.20;;;;;;;21.26;nan;101698.56;6195637;23;20427;-87
2022/10/04 22:59:36;;;;;;;6.20;1.40;;;;;;;21.27;nan;101694.69;6219899;23;20402;-88
2022/10/04 23:02:18;;;;;;;5.17;1.40;;;;;;;21.29;nan;101698.09;6170821;23;20508;-88
2022/10/04 23:04:50;;;;;;;4.60;1.43;;;;;;;21.29;nan;101694.47;6219889;23;20425;-88
2022/10/04 23:07:19;;;;;;;8.50;1.50;;;;;;;21.22;nan;101690.94;6105274;23;20432;-88
2022/10/04 23:09:47;;;;;;;1.83;1.10;;;;;;;21.21;nan;101690.09;6080889;23;20405;-88
2022/10/04 23:12:15;;;;;;;5.07;1.30;;;;;;;21.19;nan;101696.94;6104868;23;20747;-87
2022/10/04 23:14:43;;;;;;;4.80;1.67;;;;;;;21.10;nan;101685.34;6075793;23;20481;-88
2022/10/04 23:17:24;;;;;;;3.00;1.13;;;;;;;21.09;nan;101680.88;6101768;23;20406;-87
2022/10/04 23:20:05;;;;;;;9.13;1.70;;;;;;;21.07;nan;101680.28;6079328;23;20413;-87
2022/10/04 23:22:32;;;;;;;12.07;1.70;;;;;;;20.94;nan;101675.81;6131849;23;20445;-88
2022/10/04 23:25:01;;;;;;;13.47;1.97;;;;;;;20.92;nan;101677.13;6101211;23;20526;-88
2022/10/04 23:27:31;;;;;;;3.13;1.53;;;;;;;20.84;nan;101677.47;6097849;23;20573;-87
2022/10/04 23:30:03;;;;;;;12.57;2.20;;;;;;;20.65;nan;101663.66;6122330;23;20453;-87
2022/10/04 23:32:34;;;;;;;12.67;1.77;;;;;;;20.55;nan;101674.50;6149553;23;20414;-88
2022/10/04 23:35:03;;;;;;;7.70;1.80;;;;;;;20.40;nan;101670.47;6170152;23;20921;-87
2022/10/04 23:37:31;;;;;;;8.37;2.07;;;;;;;20.36;nan;101672.84;6194743;23;20403;-88
2022/10/04 23:39:58;;;;;;;8.90;1.20;;;;;;;20.28;nan;101670.38;6170125;23;20481;-87
2022/10/04 23:42:29;;;;;;;11.27;1.77;;;;;;;20.20;nan;101665.19;6194849;23;20917;-86
2022/10/04 23:45:00;;;;;;;9.00;1.50;;;;;;;20.09;nan;101663.19;6220032;23;20741;-87
2022/10/04 23:47:32;;;;;;;13.83;1.93;;;;;;;20.05;nan;101675.81;6195206;23;20391;-87
2022/10/04 23:50:00;;;;;;;5.77;1.70;;;;;;;19.93;nan;101664.69;6194569;23;20438;-88
2022/10/04 23:52:36;;;;;;;5.10;1.80;;;;;;;19.94;nan;101667.22;6219469;23;20411;-88
2022/10/04 23:55:34;;;;;;;5.23;1.40;;;;;;;20.00;nan;101655.19;6170457;23;20406;-88
2022/10/04 23:58:11;;;;;;;15.93;1.80;;;;;;;20.12;nan;101655.25;6218471;23;20438;-88
